sensor_id;sensor_type;location;lat;lon;timestamp;temperature;humidity
12223;DHT22;6174;49.058;8.524;2022-10-31T05:00:19;11.70;99.90
12223;DHT22;6174;49.058;8.524;2022-10-31T05:02:46;11.60;99.90
12223;DHT22;6174;49.058;8.524;2022-10-31T05:05:14;11.70;99.90
12223;DHT22;6174;49.058;8.524;2022-10-31T05:07:41;11.60;99.90
12223;DHT22;6174;49.058;8.524;2022-10-31T05:10:09;11.60;99.90
12223;DHT22;6174;49.058;8.524;2022-10-31T05:12:36;11.60;99.90
12223;DHT22;6174;49.058;8.524;2022-10-31T05:15:04;11.60;99.90
12223;DHT22;6174;49.058;8.524;2022-10-31T05:17:32;11.60;99.90
12223;DHT22;6174;49.058;8.524;2022-10-31T05:19:59;11.60;99.90
12223;DHT22;6174;49.058;8.524;2022-10-31T05:22:25;11.60;99.90
12223;DHT22;6174;49.058;8.524;2022-10-31T05:24:52;11.60;99.90
12223;DHT22;6174;49.058;8.524;2022-10-31T05:27:19;11.50;99.90
12223;DHT22;6174;49.058;8.524;2022-10-31T05:29:46;11.30;99.90
12223;DHT22;6174;49.058;8.524;2022-10-31T05:32:13;11.10;99.90
12223;DHT22;6174;49.058;8.524;2022-10-31T05:34:41;11.00;99.90
12223;DHT22;6174;49.058;8.524;2022-10-31T05:37:08;10.80;99.90
12223;DHT22;6174;49.058;8.524;2022-10-31T05:39:34;10.80;99.90
12223;DHT22;6174;49.058;8.524;2022-10-31T05:42:01;10.70;99.90
12223;DHT22;6174;49.058;8.524;2022-10-31T05:44:28;10.60;99.90
12223;DHT22;6174;49.058;8.524;2022-10-31T05:46:55;10.60;99.90
12223;DHT22;6174;49.058;8.524;2022-10-31T05:49:22;10.60;99.90
12223;DHT22;6174;49.058;8.524;2022-10-31T05:51:50;10.60;99.90
12223;DHT22;6174;49.058;8.524;2022-10-31T05:54:17;10.70;99.90
12223;DHT22;6174;49.058;8.524;2022-10-31T05:56:44;10.60;99.90
12223;DHT22;6174;49.058;8.524;2022-10-31T05:59:10;10.70;99.90
12223;DHT22;6174;49.058;8.524;2022-10-31T06:01:37;10.80;99.90
12223;DHT22;6174;49.058;8.524;2022-10-31T06:04:04;10.70;99.90
12223;DHT22;6174;49.058;8.524;2022-10-31T06:06:31;10.70;99.90
12223;DHT22;6174;49.058;8.524;2022-10-31T06:08:59;10.80;99.90
12223;DHT22;6174;49.058;8.524;2022-10-31T06:11:25;10.70;99.90
12223;DHT22;6174;49.058;8.524;2022-10-31T06:13:52;10.70;99.90
12223;DHT22;6174;49.058;8.524;2022-10-31T06:16:19;10.70;99.90
12223;DHT22;6174;49.058;8.524;2022-10-31T06:18:46;10.70;99.90
12223;DHT22;6174;49.058;8.524;2022-10-31T06:21:12;10.60;99.90
12223;DHT22;6174;49.058;8.524;2022-10-31T06:23:39;10.60;99.90
12223;DHT22;6174;49.058;8.524;2022-10-31T06:26:07;10.50;99.90
12223;DHT22;6174;49.058;8.524;2022-10-31T06:28:34;10.50;99.90
12223;DHT22;6174;49.058;8.524;2022-10-31T06:31:01;10.50;99.90
12223;DHT22;6174;49.058;8.524;2022-10-31T06:33:27;10.60;99.90
12223;DHT22;6174;49.058;8.524;2022-10-31T06:35:54;10.70;99.90
12223;DHT22;6174;49.058;8.524;2022-10-31T06:38:21;10.70;99.90
12223;DHT22;6174;49.058;8.524;2022-10-31T06:40:48;10.70;99.90
12223;DHT22;6174;49.058;8.524;2022-10-31T06:43:16;10.80;99.90
12223;DHT22;6174;49.058;8.524;2022-10-31T06:45:43;10.80;99.90
12223;DHT22;6174;49.058;8.524;2022-10-31T06:48:10;10.90;99.90
12223;DHT22;6174;49.058;8.524;2022-10-31T06:50:36;10.90;99.90
12223;DHT22;6174;49.058;8.524;2022-10-31T06:53:03;11.00;99.90
12223;DHT22;6174;49.058;8.524;2022-10-31T06:55:30;11.00;99.90
12223;DHT22;6174;49.058;8.524;2022-10-31T06:57:58;10.80;99.90
12223;DHT22;6174;49.058;8.524;2022-10-31T07:00:30;10.90;99.90
12223;DHT22;6174;49.058;8.524;2022-10-31T07:02:58;11.00;99.90
12223;DHT22;6174;49.058;8.524;2022-10-31T07:05:26;10.70;99.90
12223;DHT22;6174;49.058;8.524;2022-10-31T07:07:53;10.60;99.90
12223;DHT22;6174;49.058;8.524;2022-10-31T07:10:21;10.60;99.90
12223;DHT22;6174;49.058;8.524;2022-10-31T07:12:47;10.60;99.90
12223;DHT22;6174;49.058;8.524;2022-10-31T07:15:14;10.60;99.90
12223;DHT22;6174;49.058;8.524;2022-10-31T07:17:42;10.70;99.90
12223;DHT22;6174;49.058;8.524;2022-10-31T07:20:10;10.70;99.90
12223;DHT22;6174;49.058;8.524;2022-10-31T07:22:37;10.80;99.90
12223;DHT22;6174;49.058;8.524;2022-10-31T07:25:04;10.90;99.90
12223;DHT22;6174;49.058;8.524;2022-10-31T07:27:35;11.00;99.90
12223;DHT22;6174;49.058;8.524;2022-10-31T07:30:04;11.00;99.90
12223;DHT22;6174;49.058;8.524;2022-10-31T07:32:37;11.20;99.90
12223;DHT22;6174;49.058;8.524;2022-10-31T07:35:06;11.30;99.90
12223;DHT22;6174;49.058;8.524;2022-10-31T07:37:33;11.40;99.90
12223;DHT22;6174;49.058;8.524;2022-10-31T07:40:00;11.40;99.90
12223;DHT22;6174;49.058;8.524;2022-10-31T07:42:27;11.50;99.90
12223;DHT22;6174;49.058;8.524;2022-10-31T07:44:54;11.60;99.90
12223;DHT22;6174;49.058;8.524;2022-10-31T07:47:21;11.70;99.90
12223;DHT22;6174;49.058;8.524;2022-10-31T07:49:47;11.70;99.90
12223;DHT22;6174;49.058;8.524;2022-10-31T07:52:15;11.80;99.90
12223;DHT22;6174;49.058;8.524;2022-10-31T07:54:42;11.90;99.90
12223;DHT22;6174;49.058;8.524;2022-10-31T07:57:09;12.00;99.90
12223;DHT22;6174;49.058;8.524;2022-10-31T07:59:35;12.00;99.90
12223;DHT22;6174;49.058;8.524;2022-10-31T08:02:02;12.20;99.90
12223;DHT22;6174;49.058;8.524;2022-10-31T08:04:29;12.20;99.90
12223;DHT22;6174;49.058;8.524;2022-10-31T08:06:56;12.30;99.90
12223;DHT22;6174;49.058;8.524;2022-10-31T08:09:24;12.40;99.90
12223;DHT22;6174;49.058;8.524;2022-10-31T08:11:51;12.40;99.90
12223;DHT22;6174;49.058;8.524;2022-10-31T08:14:19;12.50;99.90
12223;DHT22;6174;49.058;8.524;2022-10-31T08:16:46;12.50;99.90
12223;DHT22;6174;49.058;8.524;2022-10-31T08:19:13;12.60;99.90
12223;DHT22;6174;49.058;8.524;2022-10-31T08:21:40;12.70;99.90
12223;DHT22;6174;49.058;8.524;2022-10-31T08:24:06;12.70;99.90
12223;DHT22;6174;49.058;8.524;2022-10-31T08:26:35;12.80;99.90
12223;DHT22;6174;49.058;8.524;2022-10-31T08:29:01;12.80;99.90
12223;DHT22;6174;49.058;8.524;2022-10-31T08:31:29;12.90;99.90
12223;DHT22;6174;49.058;8.524;2022-10-31T08:33:56;12.90;99.90
12223;DHT22;6174;49.058;8.524;2022-10-31T08:36:22;12.90;99.90
12223;DHT22;6174;49.058;8.524;2022-10-31T08:38:49;12.90;99.90
12223;DHT22;6174;49.058;8.524;2022-10-31T08:41:16;13.00;99.90
12223;DHT22;6174;49.058;8.524;2022-10-31T08:43:44;13.10;99.90
12223;DHT22;6174;49.058;8.524;2022-10-31T08:46:11;13.10;99.90
12223;DHT22;6174;49.058;8.524;2022-10-31T08:48:38;13.10;99.90
12223;DHT22;6174;49.058;8.524;2022-10-31T08:51:05;13.20;99.90
12223;DHT22;6174;49.058;8.524;2022-10-31T08:53:32;13.30;99.90
12223;DHT22;6174;49.058;8.524;2022-10-31T08:55:59;13.30;99.90
12223;DHT22;6174;49.058;8.524;2022-10-31T08:58:25;13.40;99.90
12223;DHT22;6174;49.058;8.524;2022-10-31T09:00:54;13.40;99.90
12223;DHT22;6174;49.058;8.524;2022-10-31T09:03:23;13.50;99.90
12223;DHT22;6174;49.058;8.524;2022-10-31T09:05:54;13.50;99.90
12223;DHT22;6174;49.058;8.524;2022-10-31T09:08:21;13.60;99.90
12223;DHT22;6174;49.058;8.524;2022-10-31T09:10:48;13.70;99.90
12223;DHT22;6174;49.058;8.524;2022-10-31T09:13:16;13.70;99.90
12223;DHT22;6174;49.058;8.524;2022-10-31T09:15:45;13.90;99.90
12223;DHT22;6174;49.058;8.524;2022-10-31T09:18:15;14.00;99.90
12223;DHT22;6174;49.058;8.524;2022-10-31T09:20:42;14.00;99.90
12223;DHT22;6174;49.058;8.524;2022-10-31T09:23:11;14.20;99.90
12223;DHT22;6174;49.058;8.524;2022-10-31T09:25:39;14.20;99.90
12223;DHT22;6174;49.058;8.524;2022-10-31T09:28:08;14.30;99.90
12223;DHT22;6174;49.058;8.524;2022-10-31T09:30:35;14.40;99.90
12223;DHT22;6174;49.058;8.524;2022-10-31T09:33:04;14.40;99.90
12223;DHT22;6174;49.058;8.524;2022-10-31T09:35:32;14.50;99.90
12223;DHT22;6174;49.058;8.524;2022-10-31T09:38:00;14.60;99.90
12223;DHT22;6174;49.058;8.524;2022-10-31T09:40:32;14.60;99.90
12223;DHT22;6174;49.058;8.524;2022-10-31T09:43:07;14.60;99.90
12223;DHT22;6174;49.058;8.524;2022-10-31T09:45:41;14.70;99.90
12223;DHT22;6174;49.058;8.524;2022-10-31T09:48:21;14.80;99.90
12223;DHT22;6174;49.058;8.524;2022-10-31T09:50:54;14.80;99.90
12223;DHT22;6174;49.058;8.524;2022-10-31T09:53:27;15.00;99.90
12223;DHT22;6174;49.058;8.524;2022-10-31T09:55:58;15.00;99.90
12223;DHT22;6174;49.058;8.524;2022-10-31T09:58:27;15.00;99.90
12223;DHT22;6174;49.058;8.524;2022-10-31T10:00:58;15.10;99.90
12223;DHT22;6174;49.058;8.524;2022-10-31T10:03:32;15.10;99.90
12223;DHT22;6174;49.058;8.524;2022-10-31T10:06:10;15.20;99.90
12223;DHT22;6174;49.058;8.524;2022-10-31T10:08:38;15.30;99.90
12223;DHT22;6174;49.058;8.524;2022-10-31T10:11:25;15.30;99.90
12223;DHT22;6174;49.058;8.524;2022-10-31T10:14:01;15.30;99.90
12223;DHT22;6174;49.058;8.524;2022-10-31T10:16:45;15.40;99.90
12223;DHT22;6174;49.058;8.524;2022-10-31T10:19:34;15.40;99.90
12223;DHT22;6174;49.058;8.524;2022-10-31T10:22:12;15.40;99.90
12223;DHT22;6174;49.058;8.524;2022-10-31T10:24:55;15.50;99.90
12223;DHT22;6174;49.058;8.524;2022-10-31T10:27:31;15.50;99.90
12223;DHT22;6174;49.058;8.524;2022-10-31T10:30:03;15.60;99.90
12223;DHT22;6174;49.058;8.524;2022-10-31T10:32:39;15.60;99.90
12223;DHT22;6174;49.058;8.524;2022-10-31T10:35:17;15.50;99.90
12223;DHT22;6174;49.058;8.524;2022-10-31T10:37:49;15.60;99.90
12223;DHT22;6174;49.058;8.524;2022-10-31T10:40:19;15.60;99.90
12223;DHT22;6174;49.058;8.524;2022-10-31T10:42:55;15.60;99.90
12223;DHT22;6174;49.058;8.524;2022-10-31T10:45:40;15.60;99.90
12223;DHT22;6174;49.058;8.524;2022-10-31T10:48:31;15.50;99.90
12223;DHT22;6174;49.058;8.524;2022-10-31T10:51:01;15.50;99.90
12223;DHT22;6174;49.058;8.524;2022-10-31T10:53:43;15.50;99.90
12223;DHT22;6174;49.058;8.524;2022-10-31T10:56:35;15.50;99.90
12223;DHT22;6174;49.058;8.524;2022-10-31T10:59:03;15.50;99.90
12223;DHT22;6174;49.058;8.524;2022-10-31T11:01:30;15.60;99.90
12223;DHT22;6174;49.058;8.524;2022-10-31T11:03:57;15.70;99.90
12223;DHT22;6174;49.058;8.524;2022-10-31T11:06:25;15.70;99.90
12223;DHT22;6174;49.058;8.524;2022-10-31T11:08:53;15.70;99.90
12223;DHT22;6174;49.058;8.524;2022-10-31T11:11:24;15.80;99.90
12223;DHT22;6174;49.058;8.524;2022-10-31T11:13:58;15.80;99.90
12223;DHT22;6174;49.058;8.524;2022-10-31T11:16:32;15.80;99.90
12223;DHT22;6174;49.058;8.524;2022-10-31T11:19:09;15.80;99.90
12223;DHT22;6174;49.058;8.524;2022-10-31T11:21:40;15.90;99.90
12223;DHT22;6174;49.058;8.524;2022-10-31T11:24:14;15.90;99.90
12223;DHT22;6174;49.058;8.524;2022-10-31T11:26:42;15.90;99.90
12223;DHT22;6174;49.058;8.524;2022-10-31T11:29:14;16.00;99.90
12223;DHT22;6174;49.058;8.524;2022-10-31T11:31:42;16.00;99.90
12223;DHT22;6174;49.058;8.524;2022-10-31T11:34:16;16.10;99.90
12223;DHT22;6174;49.058;8.524;2022-10-31T11:36:45;16.00;99.90
12223;DHT22;6174;49.058;8.524;2022-10-31T11:39:19;16.10;99.90
12223;DHT22;6174;49.058;8.524;2022-10-31T11:41:47;16.00;99.90
12223;DHT22;6174;49.058;8.524;2022-10-31T11:44:18;16.00;99.90
12223;DHT22;6174;49.058;8.524;2022-10-31T11:46:48;16.00;99.90
12223;DHT22;6174;49.058;8.524;2022-10-31T11:49:17;16.10;99.90
12223;DHT22;6174;49.058;8.524;2022-10-31T11:51:49;16.10;99.90
12223;DHT22;6174;49.058;8.524;2022-10-31T11:54:25;16.10;99.90
12223;DHT22;6174;49.058;8.524;2022-10-31T11:56:54;16.10;99.90
12223;DHT22;6174;49.058;8.524;2022-10-31T11:59:27;16.10;99.90
12223;DHT22;6174;49.058;8.524;2022-10-31T12:01:55;16.10;99.90
12223;DHT22;6174;49.058;8.524;2022-10-31T12:04:38;16.10;99.90
12223;DHT22;6174;49.058;8.524;2022-10-31T12:07:06;16.10;99.90
12223;DHT22;6174;49.058;8.524;2022-10-31T12:09:36;16.20;99.90
12223;DHT22;6174;49.058;8.524;2022-10-31T12:12:15;16.20;99.90
12223;DHT22;6174;49.058;8.524;2022-10-31T12:14:55;16.30;99.90
12223;DHT22;6174;49.058;8.524;2022-10-31T12:17:30;16.30;99.90
12223;DHT22;6174;49.058;8.524;2022-10-31T12:20:03;16.30;99.90
12223;DHT22;6174;49.058;8.524;2022-10-31T12:22:40;16.30;99.90
12223;DHT22;6174;49.058;8.524;2022-10-31T12:25:31;16.30;99.90
12223;DHT22;6174;49.058;8.524;2022-10-31T12:28:08;16.30;99.90
12223;DHT22;6174;49.058;8.524;2022-10-31T12:30:48;16.30;99.90
12223;DHT22;6174;49.058;8.524;2022-10-31T12:33:27;16.30;99.90
12223;DHT22;6174;49.058;8.524;2022-10-31T12:39:06;16.40;99.90
12223;DHT22;6174;49.058;8.524;2022-10-31T12:41:46;16.40;99.90
12223;DHT22;6174;49.058;8.524;2022-10-31T12:44:29;16.40;99.90
12223;DHT22;6174;49.058;8.524;2022-10-31T12:47:11;16.50;99.90
12223;DHT22;6174;49.058;8.524;2022-10-31T12:49:52;16.50;99.90
12223;DHT22;6174;49.058;8.524;2022-10-31T12:52:33;16.50;99.90
12223;DHT22;6174;49.058;8.524;2022-10-31T12:55:13;16.40;99.90
12223;DHT22;6174;49.058;8.524;2022-10-31T12:57:46;16.40;99.90
12223;DHT22;6174;49.058;8.524;2022-10-31T13:00:15;16.40;99.90
12223;DHT22;6174;49.058;8.524;2022-10-31T13:02:46;16.40;99.90
12223;DHT22;6174;49.058;8.524;2022-10-31T13:05:19;16.40;99.90
12223;DHT22;6174;49.058;8.524;2022-10-31T13:07:51;16.40;99.90
12223;DHT22;6174;49.058;8.524;2022-10-31T13:10:22;16.30;99.90
12223;DHT22;6174;49.058;8.524;2022-10-31T13:12:57;16.40;99.90
12223;DHT22;6174;49.058;8.524;2022-10-31T13:15:27;16.50;99.90
12223;DHT22;6174;49.058;8.524;2022-10-31T13:17:57;16.50;99.90
12223;DHT22;6174;49.058;8.524;2022-10-31T13:20:27;16.70;99.90
12223;DHT22;6174;49.058;8.524;2022-10-31T13:23:04;16.80;99.90
12223;DHT22;6174;49.058;8.524;2022-10-31T13:25:37;16.80;99.90
12223;DHT22;6174;49.058;8.524;2022-10-31T13:28:15;16.80;99.90
12223;DHT22;6174;49.058;8.524;2022-10-31T13:30:47;16.90;99.90
12223;DHT22;6174;49.058;8.524;2022-10-31T13:33:17;16.90;99.90
12223;DHT22;6174;49.058;8.524;2022-10-31T13:35:51;16.90;99.90
12223;DHT22;6174;49.058;8.524;2022-10-31T13:38:24;16.90;99.90
12223;DHT22;6174;49.058;8.524;2022-10-31T13:40:59;16.90;99.90
12223;DHT22;6174;49.058;8.524;2022-10-31T13:43:32;17.00;99.90
12223;DHT22;6174;49.058;8.524;2022-10-31T13:46:21;16.90;99.90
12223;DHT22;6174;49.058;8.524;2022-10-31T13:48:49;17.00;99.90
12223;DHT22;6174;49.058;8.524;2022-10-31T13:51:25;17.00;99.90
12223;DHT22;6174;49.058;8.524;2022-10-31T13:53:59;17.00;99.90
12223;DHT22;6174;49.058;8.524;2022-10-31T13:56:27;16.90;99.90
12223;DHT22;6174;49.058;8.524;2022-10-31T13:59:12;16.90;99.90
12223;DHT22;6174;49.058;8.524;2022-10-31T14:01:50;16.90;99.90
12223;DHT22;6174;49.058;8.524;2022-10-31T14:04:19;16.90;99.90
12223;DHT22;6174;49.058;8.524;2022-10-31T14:06:55;16.80;99.90
12223;DHT22;6174;49.058;8.524;2022-10-31T14:09:27;16.80;99.90
12223;DHT22;6174;49.058;8.524;2022-10-31T14:11:56;16.80;99.90
12223;DHT22;6174;49.058;8.524;2022-10-31T14:14:32;16.70;99.90
12223;DHT22;6174;49.058;8.524;2022-10-31T14:16:59;16.60;99.90
12223;DHT22;6174;49.058;8.524;2022-10-31T14:19:27;16.60;99.90
12223;DHT22;6174;49.058;8.524;2022-10-31T14:21:54;16.60;99.90
12223;DHT22;6174;49.058;8.524;2022-10-31T14:24:35;16.60;99.90
12223;DHT22;6174;49.058;8.524;2022-10-31T14:27:05;16.60;99.90
12223;DHT22;6174;49.058;8.524;2022-10-31T14:29:52;16.60;99.90
12223;DHT22;6174;49.058;8.524;2022-10-31T14:32:21;16.80;99.90
12223;DHT22;6174;49.058;8.524;2022-10-31T14:34:53;16.80;99.90
12223;DHT22;6174;49.058;8.524;2022-10-31T14:37:36;16.80;99.90
12223;DHT22;6174;49.058;8.524;2022-10-31T14:40:25;16.80;99.90
12223;DHT22;6174;49.058;8.524;2022-10-31T14:43:24;16.70;99.90
12223;DHT22;6174;49.058;8.524;2022-10-31T14:46:00;16.70;99.90
12223;DHT22;6174;49.058;8.524;2022-10-31T14:51:21;16.70;99.90
12223;DHT22;6174;49.058;8.524;2022-10-31T14:53:50;16.60;99.90
12223;DHT22;6174;49.058;8.524;2022-10-31T14:56:21;16.60;99.90
12223;DHT22;6174;49.058;8.524;2022-10-31T14:58:49;16.60;99.90
12223;DHT22;6174;49.058;8.524;2022-10-31T15:01:23;16.50;99.90
12223;DHT22;6174;49.058;8.524;2022-10-31T15:03:50;16.50;99.90
12223;DHT22;6174;49.058;8.524;2022-10-31T15:06:20;16.50;99.90
12223;DHT22;6174;49.058;8.524;2022-10-31T15:08:50;16.50;99.90
12223;DHT22;6174;49.058;8.524;2022-10-31T15:11:18;16.50;99.90
12223;DHT22;6174;49.058;8.524;2022-10-31T15:13:47;16.50;99.90
12223;DHT22;6174;49.058;8.524;2022-10-31T15:16:17;16.50;99.90
12223;DHT22;6174;49.058;8.524;2022-10-31T15:18:52;16.40;99.90
12223;DHT22;6174;49.058;8.524;2022-10-31T15:21:21;16.40;99.90
12223;DHT22;6174;49.058;8.524;2022-10-31T15:23:49;16.40;99.90
12223;DHT22;6174;49.058;8.524;2022-10-31T15:26:19;16.40;99.90
12223;DHT22;6174;49.058;8.524;2022-10-31T15:28:57;16.40;99.90
12223;DHT22;6174;49.058;8.524;2022-10-31T15:31:24;16.40;99.90
12223;DHT22;6174;49.058;8.524;2022-10-31T15:33:53;16.30;99.90
12223;DHT22;6174;49.058;8.524;2022-10-31T15:36:24;16.30;99.90
12223;DHT22;6174;49.058;8.524;2022-10-31T15:38:51;16.30;99.90
12223;DHT22;6174;49.058;8.524;2022-10-31T15:41:24;16.30;99.90
12223;DHT22;6174;49.058;8.524;2022-10-31T15:43:54;16.30;99.90
12223;DHT22;6174;49.058;8.524;2022-10-31T15:46:23;16.30;99.90
12223;DHT22;6174;49.058;8.524;2022-10-31T15:48:53;16.20;99.90
12223;DHT22;6174;49.058;8.524;2022-10-31T15:51:26;16.20;99.90
12223;DHT22;6174;49.058;8.524;2022-10-31T15:53:55;16.10;99.90
12223;DHT22;6174;49.058;8.524;2022-10-31T15:56:24;16.10;99.90
12223;DHT22;6174;49.058;8.524;2022-10-31T15:58:52;16.00;99.90
12223;DHT22;6174;49.058;8.524;2022-10-31T16:01:22;16.10;99.90
12223;DHT22;6174;49.058;8.524;2022-10-31T16:04:00;16.00;99.90
12223;DHT22;6174;49.058;8.524;2022-10-31T16:06:27;16.00;99.90
12223;DHT22;6174;49.058;8.524;2022-10-31T16:08:53;16.00;99.90
12223;DHT22;6174;49.058;8.524;2022-10-31T16:14:23;15.90;99.90
12223;DHT22;6174;49.058;8.524;2022-10-31T16:16:52;15.90;99.90
12223;DHT22;6174;49.058;8.524;2022-10-31T16:19:23;15.90;99.90
12223;DHT22;6174;49.058;8.524;2022-10-31T16:21:53;15.90;99.90
12223;DHT22;6174;49.058;8.524;2022-10-31T16:24:24;15.80;99.90
12223;DHT22;6174;49.058;8.524;2022-10-31T16:26:54;15.80;99.90
12223;DHT22;6174;49.058;8.524;2022-10-31T16:29:26;15.80;99.90
12223;DHT22;6174;49.058;8.524;2022-10-31T16:31:53;15.80;99.90
12223;DHT22;6174;49.058;8.524;2022-10-31T16:34:22;15.80;99.90
12223;DHT22;6174;49.058;8.524;2022-10-31T16:36:49;15.80;99.90
12223;DHT22;6174;49.058;8.524;2022-10-31T16:39:16;15.80;99.90
12223;DHT22;6174;49.058;8.524;2022-10-31T16:41:45;15.80;99.90
12223;DHT22;6174;49.058;8.524;2022-10-31T16:44:18;15.70;99.90
12223;DHT22;6174;49.058;8.524;2022-10-31T16:46:46;15.60;99.90
12223;DHT22;6174;49.058;8.524;2022-10-31T16:49:12;15.60;99.90
12223;DHT22;6174;49.058;8.524;2022-10-31T16:51:42;15.60;99.90
12223;DHT22;6174;49.058;8.524;2022-10-31T16:54:09;15.60;99.90
12223;DHT22;6174;49.058;8.524;2022-10-31T16:56:37;15.50;99.90
12223;DHT22;6174;49.058;8.524;2022-10-31T16:59:06;15.40;99.90
12223;DHT22;6174;49.058;8.524;2022-10-31T17:01:33;15.50;99.90
12223;DHT22;6174;49.058;8.524;2022-10-31T17:04:00;15.40;99.90
12223;DHT22;6174;49.058;8.524;2022-10-31T17:06:27;15.50;99.90
12223;DHT22;6174;49.058;8.524;2022-10-31T17:08:55;15.40;99.90
12223;DHT22;6174;49.058;8.524;2022-10-31T17:11:23;15.30;99.90
12223;DHT22;6174;49.058;8.524;2022-10-31T17:13:52;15.30;99.90
12223;DHT22;6174;49.058;8.524;2022-10-31T17:16:19;15.30;99.90
12223;DHT22;6174;49.058;8.524;2022-10-31T17:18:46;15.30;99.90
12223;DHT22;6174;49.058;8.524;2022-10-31T17:21:16;15.20;99.90
12223;DHT22;6174;49.058;8.524;2022-10-31T17:23:44;15.10;99.90
12223;DHT22;6174;49.058;8.524;2022-10-31T17:26:12;15.10;99.90
12223;DHT22;6174;49.058;8.524;2022-10-31T17:28:39;15.10;99.90
12223;DHT22;6174;49.058;8.524;2022-10-31T17:31:18;15.00;99.90
12223;DHT22;6174;49.058;8.524;2022-10-31T17:33:45;15.10;99.90
12223;DHT22;6174;49.058;8.524;2022-10-31T17:36:12;15.00;99.90
12223;DHT22;6174;49.058;8.524;2022-10-31T17:38:39;15.00;99.90
12223;DHT22;6174;49.058;8.524;2022-10-31T17:41:06;15.00;99.90
12223;DHT22;6174;49.058;8.524;2022-10-31T17:43:34;14.90;99.90
12223;DHT22;6174;49.058;8.524;2022-10-31T17:46:01;14.90;99.90
12223;DHT22;6174;49.058;8.524;2022-10-31T17:48:28;15.00;99.90
12223;DHT22;6174;49.058;8.524;2022-10-31T17:50:59;14.90;99.90
12223;DHT22;6174;49.058;8.524;2022-10-31T17:53:27;14.90;99.90
12223;DHT22;6174;49.058;8.524;2022-10-31T17:55:59;14.90;99.90
12223;DHT22;6174;49.058;8.524;2022-10-31T17:58:26;14.90;99.90
12223;DHT22;6174;49.058;8.524;2022-10-31T18:00:54;14.90;99.90
12223;DHT22;6174;49.058;8.524;2022-10-31T18:03:21;14.80;99.90
12223;DHT22;6174;49.058;8.524;2022-10-31T18:05:52;14.80;99.90
12223;DHT22;6174;49.058;8.524;2022-10-31T18:08:22;14.80;99.90
12223;DHT22;6174;49.058;8.524;2022-10-31T18:10:49;14.80;99.90
12223;DHT22;6174;49.058;8.524;2022-10-31T18:13:16;14.80;99.90
12223;DHT22;6174;49.058;8.524;2022-10-31T18:15:43;14.80;99.90
12223;DHT22;6174;49.058;8.524;2022-10-31T18:18:11;14.80;99.90
12223;DHT22;6174;49.058;8.524;2022-10-31T18:20:38;14.80;99.90
12223;DHT22;6174;49.058;8.524;2022-10-31T18:23:05;14.90;99.90
12223;DHT22;6174;49.058;8.524;2022-10-31T18:25:32;14.90;99.90
12223;DHT22;6174;49.058;8.524;2022-10-31T18:27:58;14.90;99.90
12223;DHT22;6174;49.058;8.524;2022-10-31T18:30:26;14.90;99.90
12223;DHT22;6174;49.058;8.524;2022-10-31T18:32:53;14.90;99.90
12223;DHT22;6174;49.058;8.524;2022-10-31T18:35:21;14.90;99.90
12223;DHT22;6174;49.058;8.524;2022-10-31T18:37:48;14.80;99.90
12223;DHT22;6174;49.058;8.524;2022-10-31T18:40:15;15.00;99.90
12223;DHT22;6174;49.058;8.524;2022-10-31T18:42:42;14.70;99.90
12223;DHT22;6174;49.058;8.524;2022-10-31T18:45:09;14.70;99.90
12223;DHT22;6174;49.058;8.524;2022-10-31T18:47:36;14.60;99.90
12223;DHT22;6174;49.058;8.524;2022-10-31T18:50:03;14.50;99.90
12223;DHT22;6174;49.058;8.524;2022-10-31T18:52:32;14.50;99.90
12223;DHT22;6174;49.058;8.524;2022-10-31T18:54:58;14.50;99.90
12223;DHT22;6174;49.058;8.524;2022-10-31T18:57:26;14.50;99.90
12223;DHT22;6174;49.058;8.524;2022-10-31T18:59:53;14.50;99.90
12223;DHT22;6174;49.058;8.524;2022-10-31T19:02:19;14.50;99.90
12223;DHT22;6174;49.058;8.524;2022-10-31T19:04:46;14.50;99.90
12223;DHT22;6174;49.058;8.524;2022-10-31T19:07:13;14.50;99.90
12223;DHT22;6174;49.058;8.524;2022-10-31T19:09:41;14.50;99.90
12223;DHT22;6174;49.058;8.524;2022-10-31T19:12:08;14.50;99.90
12223;DHT22;6174;49.058;8.524;2022-10-31T19:14:35;14.50;99.90
12223;DHT22;6174;49.058;8.524;2022-10-31T19:17:01;14.50;99.90
12223;DHT22;6174;49.058;8.524;2022-10-31T19:19:28;14.50;99.90
12223;DHT22;6174;49.058;8.524;2022-10-31T19:21:55;14.50;99.90
12223;DHT22;6174;49.058;8.524;2022-10-31T19:24:22;14.40;99.90
12223;DHT22;6174;49.058;8.524;2022-10-31T19:26:50;14.40;99.90
12223;DHT22;6174;49.058;8.524;2022-10-31T19:29:17;14.40;99.90
12223;DHT22;6174;49.058;8.524;2022-10-31T19:31:43;14.40;99.90
12223;DHT22;6174;49.058;8.524;2022-10-31T19:34:10;14.30;99.90
12223;DHT22;6174;49.058;8.524;2022-10-31T19:36:37;14.30;99.90
12223;DHT22;6174;49.058;8.524;2022-10-31T19:39:04;14.30;99.90
12223;DHT22;6174;49.058;8.524;2022-10-31T19:41:30;14.30;99.90
12223;DHT22;6174;49.058;8.524;2022-10-31T19:43:59;14.30;99.90
12223;DHT22;6174;49.058;8.524;2022-10-31T19:46:26;14.20;99.90
12223;DHT22;6174;49.058;8.524;2022-10-31T19:48:53;14.20;99.90
12223;DHT22;6174;49.058;8.524;2022-10-31T19:51:20;14.20;99.90
12223;DHT22;6174;49.058;8.524;2022-10-31T19:53:47;14.20;99.90
12223;DHT22;6174;49.058;8.524;2022-10-31T19:56:16;14.10;99.90
12223;DHT22;6174;49.058;8.524;2022-10-31T19:58:43;14.10;99.90
12223;DHT22;6174;49.058;8.524;2022-10-31T20:01:14;14.00;99.90
12223;DHT22;6174;49.058;8.524;2022-10-31T20:03:42;14.00;99.90
12223;DHT22;6174;49.058;8.524;2022-10-31T20:06:15;13.90;99.90
12223;DHT22;6174;49.058;8.524;2022-10-31T20:08:43;13.90;99.90
12223;DHT22;6174;49.058;8.524;2022-10-31T20:11:10;13.80;99.90
12223;DHT22;6174;49.058;8.524;2022-10-31T20:13:37;13.80;99.90
12223;DHT22;6174;49.058;8.524;2022-10-31T20:16:07;13.80;99.90
12223;DHT22;6174;49.058;8.524;2022-10-31T20:18:36;13.80;99.90
12223;DHT22;6174;49.058;8.524;2022-10-31T20:21:04;13.70;99.90
12223;DHT22;6174;49.058;8.524;2022-10-31T20:23:31;13.70;99.90
12223;DHT22;6174;49.058;8.524;2022-10-31T20:25:58;13.70;99.90
12223;DHT22;6174;49.058;8.524;2022-10-31T20:28:29;13.70;99.90
12223;DHT22;6174;49.058;8.524;2022-10-31T20:30:56;13.70;99.90
12223;DHT22;6174;49.058;8.524;2022-10-31T20:33:23;13.70;99.90
12223;DHT22;6174;49.058;8.524;2022-10-31T20:35:51;13.70;99.90
12223;DHT22;6174;49.058;8.524;2022-10-31T20:38:21;13.70;99.90
12223;DHT22;6174;49.058;8.524;2022-10-31T20:40:49;13.70;99.90
12223;DHT22;6174;49.058;8.524;2022-10-31T20:43:16;13.70;99.90
12223;DHT22;6174;49.058;8.524;2022-10-31T20:45:43;13.70;99.90
12223;DHT22;6174;49.058;8.524;2022-10-31T20:48:10;13.70;99.90
12223;DHT22;6174;49.058;8.524;2022-10-31T20:50:37;13.70;99.90
12223;DHT22;6174;49.058;8.524;2022-10-31T20:53:05;13.70;99.90
12223;DHT22;6174;49.058;8.524;2022-10-31T20:55:32;13.70;99.90
12223;DHT22;6174;49.058;8.524;2022-10-31T20:57:59;13.70;99.90
12223;DHT22;6174;49.058;8.524;2022-10-31T21:00:25;13.60;99.90
12223;DHT22;6174;49.058;8.524;2022-10-31T21:02:52;13.60;99.90
12223;DHT22;6174;49.058;8.524;2022-10-31T21:05:19;13.60;99.90
12223;DHT22;6174;49.058;8.524;2022-10-31T21:07:46;13.70;99.90
12223;DHT22;6174;49.058;8.524;2022-10-31T21:10:14;13.60;99.90